Time;durP1;ratioP1;P1;durP2;ratioP2;P2;SDS_P1;SDS_P2;PMS_P1;PMS_P2;Temp;Humidity;BMP_temperature;BMP_pressure;BME280_temperature;BME280_humidity;BME280_pressure;Samples;Min_cycle;Max_cycle;Signal;HPM_P1;HPM_P2
2022/03/18 00:00:06;;;;;;;21.17;6.10;;;;;;;5.04;100.00;101051.41;4994171;28;20238;-78
2022/03/18 00:02:36;;;;;;;13.70;5.97;;;;;;;5.08;100.00;101044.34;4954825;28;20204;-79
2022/03/18 00:05:07;;;;;;;14.17;5.90;;;;;;;5.03;100.00;101061.94;4949745;28;20199;-78
2022/03/18 00:07:35;;;;;;;17.27;5.90;;;;;;;4.98;100.00;101051.47;4983558;28;20195;-78
2022/03/18 00:10:04;;;;;;;12.87;5.90;;;;;;;5.06;100.00;101059.25;5021889;28;20211;-78
2022/03/18 00:12:33;;;;;;;11.67;5.37;;;;;;;5.08;100.00;101055.72;5043250;28;20648;-78
2022/03/18 00:15:02;;;;;;;13.07;6.17;;;;;;;4.98;100.00;101053.22;5046387;28;20197;-78
2022/03/18 00:17:30;;;;;;;13.03;5.67;;;;;;;4.85;100.00;101063.00;5052256;28;20201;-78
2022/03/18 00:20:01;;;;;;;12.43;6.40;;;;;;;4.81;100.00;101071.75;4973945;28;20281;-78
2022/03/18 00:22:30;;;;;;;12.30;5.27;;;;;;;4.75;100.00;101056.09;4976506;28;20206;-78
2022/03/18 00:25:00;;;;;;;12.53;5.23;;;;;;;4.66;100.00;101069.31;5012397;28;20622;-78
2022/03/18 00:27:29;;;;;;;16.73;5.73;;;;;;;4.66;100.00;101071.91;5012104;28;20294;-77
2022/03/18 00:29:58;;;;;;;16.03;5.53;;;;;;;4.63;100.00;101067.56;5013230;28;20206;-78
2022/03/18 00:32:27;;;;;;;10.97;5.50;;;;;;;4.52;100.00;101080.75;5010440;28;20226;-78
2022/03/18 00:34:56;;;;;;;10.83;6.20;;;;;;;4.52;100.00;101079.91;5008216;28;20198;-78
2022/03/18 00:37:26;;;;;;;13.53;6.27;;;;;;;4.57;100.00;101078.13;5008716;28;20191;-78
2022/03/18 00:39:55;;;;;;;14.40;6.10;;;;;;;4.60;100.00;101083.34;5072078;28;20312;-78
2022/03/18 00:42:24;;;;;;;10.73;5.40;;;;;;;4.64;100.00;101077.19;5070461;28;20201;-78
2022/03/18 00:44:52;;;;;;;14.33;5.97;;;;;;;4.66;100.00;101072.78;5070380;28;20330;-78
2022/03/18 00:53:00;;;;;;;10.53;6.40;;;;;;;4.73;100.00;101073.59;5072108;28;20188;-79
2022/03/18 00:55:30;;;;;;;11.90;6.50;;;;;;;4.77;100.00;101072.69;5054163;28;20200;-78
2022/03/18 00:57:59;;;;;;;13.47;6.53;;;;;;;4.65;100.00;101078.94;5035673;28;20226;-78
2022/03/18 01:00:28;;;;;;;16.40;7.10;;;;;;;4.62;100.00;101078.94;5001584;28;20195;-78
2022/03/18 01:02:58;;;;;;;14.83;6.90;;;;;;;4.55;100.00;101075.50;5041141;28;20218;-78
2022/03/18 01:05:29;;;;;;;12.63;7.27;;;;;;;4.49;100.00;101072.06;5049372;28;20190;-78
2022/03/18 01:07:59;;;;;;;17.70;7.67;;;;;;;4.46;100.00;101080.84;5044480;28;20200;-78
2022/03/18 01:10:29;;;;;;;18.93;7.43;;;;;;;4.28;100.00;101081.84;5014233;28;20205;-78
2022/03/18 01:13:00;;;;;;;15.20;6.30;;;;;;;4.46;100.00;101088.72;5048070;28;20201;-78
2022/03/18 01:15:28;;;;;;;15.33;6.77;;;;;;;4.38;100.00;101089.66;5048622;28;20197;-78
2022/03/18 01:17:57;;;;;;;12.10;6.47;;;;;;;4.29;100.00;101078.34;5040928;28;20205;-78
2022/03/18 01:20:28;;;;;;;13.20;6.07;;;;;;;4.41;100.00;101089.63;5039006;28;20205;-78
2022/03/18 01:22:56;;;;;;;11.90;6.00;;;;;;;4.41;100.00;101082.59;5013418;28;20236;-78
2022/03/18 01:25:28;;;;;;;11.60;6.17;;;;;;;4.32;100.00;101086.16;4993942;28;20636;-78
2022/03/18 01:27:58;;;;;;;17.23;6.60;;;;;;;4.40;100.00;101091.38;5028869;28;20197;-78
2022/03/18 01:30:26;;;;;;;12.70;6.40;;;;;;;4.40;100.00;101088.75;5031108;28;20201;-78
2022/03/18 01:32:55;;;;;;;12.53;6.17;;;;;;;4.48;100.00;101088.69;5030480;28;20472;-78
2022/03/18 01:35:24;;;;;;;19.43;6.27;;;;;;;4.36;100.00;101091.41;5023126;28;20233;-78
2022/03/18 01:37:52;;;;;;;12.73;6.40;;;;;;;4.41;100.00;101089.63;5025888;28;20198;-78
2022/03/18 01:40:25;;;;;;;17.73;6.53;;;;;;;4.26;100.00;101094.09;5014418;28;20527;-78
2022/03/18 01:42:53;;;;;;;16.43;7.00;;;;;;;4.29;100.00;101093.22;4951102;28;20278;-78
2022/03/18 01:45:25;;;;;;;13.20;6.80;;;;;;;4.29;100.00;101098.44;4945505;28;20197;-78
2022/03/18 01:47:54;;;;;;;12.70;6.30;;;;;;;4.29;100.00;101099.31;4952623;28;20203;-77
2022/03/18 01:50:22;;;;;;;11.10;6.60;;;;;;;4.31;100.00;101094.06;4947548;28;20197;-78
2022/03/18 01:52:51;;;;;;;13.80;6.47;;;;;;;4.38;100.00;101098.38;4950340;28;20201;-78
2022/03/18 01:55:21;;;;;;;15.97;6.43;;;;;;;4.44;100.00;101105.31;4951685;28;20193;-78
2022/03/18 01:57:50;;;;;;;16.93;6.10;;;;;;;4.34;100.00;101095.78;4952575;28;20204;-78
2022/03/18 02:00:21;;;;;;;14.23;6.87;;;;;;;4.39;100.00;101107.13;4956762;28;20353;-78
2022/03/18 02:02:57;;;;;;;18.60;7.03;;;;;;;4.42;100.00;101104.47;4952778;28;20204;-78
2022/03/18 02:05:28;;;;;;;11.77;6.40;;;;;;;4.45;100.00;101101.84;4931022;28;20208;-78
2022/03/18 02:07:56;;;;;;;14.83;6.30;;;;;;;4.46;100.00;101106.22;4952142;28;20199;-78
2022/03/18 02:10:25;;;;;;;13.87;7.50;;;;;;;4.46;100.00;101109.69;4948271;29;20200;-79
2022/03/18 02:12:53;;;;;;;15.77;6.30;;;;;;;4.43;100.00;101106.22;4962376;28;20204;-78
2022/03/18 02:15:23;;;;;;;15.73;6.37;;;;;;;4.45;100.00;101113.22;4965170;28;20283;-78
2022/03/18 02:17:53;;;;;;;14.57;6.87;;;;;;;4.53;100.00;101113.13;4998367;28;20200;-79
2022/03/18 02:20:22;;;;;;;17.67;6.97;;;;;;;4.43;100.00;101125.44;4956616;28;20223;-78
2022/03/18 02:22:52;;;;;;;15.33;7.00;;;;;;;4.36;100.00;101120.28;4961287;28;20201;-78
2022/03/18 02:25:22;;;;;;;12.57;6.47;;;;;;;4.42;100.00;101110.59;4951878;28;20212;-78
2022/03/18 02:27:59;;;;;;;13.23;6.80;;;;;;;4.44;100.00;101121.06;4953250;28;20193;-78
2022/03/18 02:30:30;;;;;;;10.17;6.30;;;;;;;4.48;100.00;101120.19;4962163;28;20203;-78
2022/03/18 02:32:59;;;;;;;20.20;7.10;;;;;;;4.49;100.00;101121.91;4951895;28;20264;-79
2022/03/18 02:35:29;;;;;;;16.93;6.70;;;;;;;4.52;100.00;101108.75;4952238;28;20209;-78
2022/03/18 02:38:01;;;;;;;15.67;6.77;;;;;;;4.44;100.00;101108.84;4963351;28;20209;-78
2022/03/18 02:40:30;;;;;;;15.77;7.43;;;;;;;4.42;100.00;101105.34;4975057;28;20662;-78
2022/03/18 02:42:59;;;;;;;15.53;7.23;;;;;;;4.55;100.00;101109.63;4983470;28;20245;-78
2022/03/18 02:45:27;;;;;;;17.33;7.30;;;;;;;4.43;100.00;101100.97;4976233;28;20201;-78
2022/03/18 02:47:56;;;;;;;16.90;7.83;;;;;;;4.36;100.00;101100.16;4980822;28;20216;-78
2022/03/18 02:50:24;;;;;;;15.63;7.07;;;;;;;4.49;100.00;101104.41;4970015;28;20296;-78
2022/03/18 02:52:52;;;;;;;14.53;7.30;;;;;;;4.42;100.00;101107.09;4966021;28;20200;-78
2022/03/18 02:55:22;;;;;;;13.20;6.93;;;;;;;4.33;100.00;101102.78;4971303;28;20192;-78
2022/03/18 02:57:51;;;;;;;15.80;7.13;;;;;;;4.23;100.00;101112.47;4914149;29;20206;-78
2022/03/18 03:00:25;;;;;;;14.90;7.27;;;;;;;4.22;100.00;101117.72;4900305;29;20255;-78
2022/03/18 03:02:56;;;;;;;14.90;7.53;;;;;;;4.26;100.00;101119.47;4926495;29;20227;-78
2022/03/18 03:08:10;;;;;;;14.50;7.47;;;;;;;4.06;100.00;101116.97;4920587;29;20195;-78
2022/03/18 03:10:42;;;;;;;12.60;7.20;;;;;;;4.02;100.00;101120.47;4885605;29;20238;-78
2022/03/18 03:13:10;;;;;;;13.33;7.23;;;;;;;3.97;100.00;101127.50;4888683;29;20212;-78
2022/03/18 03:15:40;;;;;;;18.00;7.40;;;;;;;3.85;100.00;101120.56;4911750;29;20345;-78
2022/03/18 03:18:09;;;;;;;14.57;6.90;;;;;;;3.71;100.00;101122.38;4950183;28;20196;-78
2022/03/18 03:20:37;;;;;;;18.53;8.07;;;;;;;3.91;100.00;101133.63;4942333;28;20240;-78
2022/03/18 03:23:06;;;;;;;18.73;8.83;;;;;;;3.89;100.00;101140.66;4951263;28;20212;-78
2022/03/18 03:25:36;;;;;;;19.13;7.77;;;;;;;3.89;100.00;101155.50;4915444;28;20286;-78
2022/03/18 03:28:07;;;;;;;17.90;8.17;;;;;;;3.87;100.00;101158.13;4947132;28;20204;-78
2022/03/18 03:30:35;;;;;;;17.67;8.23;;;;;;;3.84;100.00;101160.75;4947611;28;20200;-78
2022/03/18 03:33:04;;;;;;;15.30;7.83;;;;;;;3.95;100.00;101171.19;4954165;28;20196;-78
2022/03/18 03:35:32;;;;;;;18.00;8.43;;;;;;;3.82;100.00;101170.38;4987292;28;20203;-78
2022/03/18 03:38:01;;;;;;;13.47;7.07;;;;;;;3.91;100.00;101170.34;4984043;28;20265;-78
2022/03/18 03:40:29;;;;;;;14.77;7.87;;;;;;;3.79;100.00;101178.25;4987665;28;20232;-78
2022/03/18 03:42:58;;;;;;;18.80;8.37;;;;;;;3.80;100.00;101176.50;4975769;28;20204;-78
2022/03/18 03:45:28;;;;;;;15.43;7.70;;;;;;;3.76;100.00;101187.88;4974411;28;20203;-78
2022/03/18 03:47:57;;;;;;;19.30;7.93;;;;;;;3.71;100.00;101196.63;4977799;28;20210;-78
2022/03/18 03:50:28;;;;;;;16.07;8.37;;;;;;;3.78;100.00;101189.63;4969793;28;20191;-78
2022/03/18 03:52:57;;;;;;;19.97;9.07;;;;;;;3.75;100.00;101192.25;4975239;28;20215;-77
2022/03/18 03:55:27;;;;;;;21.23;9.13;;;;;;;3.79;100.00;101195.75;4973810;28;20225;-78
2022/03/18 03:57:55;;;;;;;20.07;9.83;;;;;;;3.89;100.00;101203.56;4951644;29;20244;-78
2022/03/18 04:00:24;;;;;;;17.53;8.93;;;;;;;3.93;100.00;101202.66;4962340;28;20283;-78
2022/03/18 04:02:54;;;;;;;22.20;8.97;;;;;;;3.87;100.00;101204.44;4981065;28;20197;-78
2022/03/18 04:05:23;;;;;;;24.73;10.03;;;;;;;3.94;100.00;101207.03;5027574;28;20193;-78
2022/03/18 04:07:52;;;;;;;19.33;9.60;;;;;;;3.85;100.00;101214.91;5033373;28;20190;-78
2022/03/18 04:10:20;;;;;;;17.60;9.57;;;;;;;3.88;100.00;101212.31;4971641;28;20227;-78
2022/03/18 04:12:50;;;;;;;19.30;9.57;;;;;;;3.88;100.00;101224.53;4968983;28;20196;-78
2022/03/18 04:15:18;;;;;;;20.60;9.27;;;;;;;3.84;100.00;101228.03;4971468;28;20207;-78
2022/03/18 04:17:48;;;;;;;16.57;9.07;;;;;;;3.79;100.00;101227.19;4940400;28;20200;-78
2022/03/18 04:20:24;;;;;;;23.20;9.63;;;;;;;3.79;100.00;101235.06;4927199;28;20290;-78
2022/03/18 04:22:53;;;;;;;23.40;8.63;;;;;;;3.80;100.00;101232.41;4973358;28;20265;-78
2022/03/18 04:25:23;;;;;;;20.57;9.17;;;;;;;3.81;100.00;101238.53;4965200;28;20231;-79
2022/03/18 04:27:53;;;;;;;19.17;9.43;;;;;;;3.85;100.00;101237.63;4982909;28;20209;-78
2022/03/18 04:30:23;;;;;;;18.23;8.93;;;;;;;3.73;100.00;101254.28;4979201;28;20204;-78
2022/03/18 04:32:51;;;;;;;19.77;9.10;;;;;;;3.84;100.00;101249.00;5021813;28;20323;-78
2022/03/18 04:35:21;;;;;;;21.13;9.40;;;;;;;3.72;100.00;101255.16;4982169;28;20192;-77
2022/03/18 04:37:50;;;;;;;15.63;9.57;;;;;;;3.71;100.00;101253.41;4971027;28;20239;-78
2022/03/18 04:40:19;;;;;;;16.30;8.80;;;;;;;3.73;100.00;101263.00;4978647;28;20261;-78
2022/03/18 04:42:47;;;;;;;22.43;10.27;;;;;;;3.68;100.00;101262.16;4984421;28;20306;-78
2022/03/18 04:45:17;;;;;;;20.17;9.33;;;;;;;3.77;100.00;101265.66;4979751;28;20196;-78
2022/03/18 04:47:46;;;;;;;18.43;8.90;;;;;;;3.80;100.00;101260.38;4972880;28;20199;-78
2022/03/18 04:50:14;;;;;;;16.40;8.70;;;;;;;3.80;100.00;101261.25;4974742;28;20195;-78
2022/03/18 04:52:44;;;;;;;20.57;9.60;;;;;;;3.76;100.00;101264.75;4980405;28;20200;-78
2022/03/18 04:55:13;;;;;;;18.57;9.33;;;;;;;3.76;100.00;101269.13;4982175;28;20200;-78
2022/03/18 04:57:42;;;;;;;22.73;9.73;;;;;;;3.69;100.00;101268.28;5032587;28;20350;-78
2022/03/18 05:00:11;;;;;;;23.63;9.90;;;;;;;3.69;100.00;101265.66;4979707;28;20212;-78
2022/03/18 05:02:43;;;;;;;17.73;9.30;;;;;;;3.72;100.00;101270.88;4981030;28;20646;-78
2022/03/18 05:05:17;;;;;;;18.03;10.20;;;;;;;3.66;100.00;101282.22;5027324;28;20206;-78
2022/03/18 05:07:54;;;;;;;20.73;9.10;;;;;;;3.66;100.00;101278.75;5030264;28;20751;-78
2022/03/18 05:10:24;;;;;;;18.23;8.63;;;;;;;3.67;100.00;101289.25;4969313;28;20195;-78
2022/03/18 05:12:53;;;;;;;19.67;9.20;;;;;;;3.68;100.00;101290.13;4972390;28;20263;-79
2022/03/18 05:15:24;;;;;;;20.47;8.33;;;;;;;3.69;100.00;101292.72;4970815;28;20208;-78
2022/03/18 05:17:55;;;;;;;17.67;8.70;;;;;;;3.76;100.00;101301.44;4910034;28;20202;-78
2022/03/18 05:20:24;;;;;;;15.67;8.50;;;;;;;3.82;100.00;101304.06;4963981;28;20304;-78
2022/03/18 05:22:54;;;;;;;16.57;8.43;;;;;;;3.80;100.00;101305.81;4965958;28;20203;-78
2022/03/18 05:25:23;;;;;;;20.77;8.20;;;;;;;3.79;100.00;101314.56;4959824;28;20215;-78
2022/03/18 05:27:52;;;;;;;15.87;7.77;;;;;;;3.83;100.00;101318.03;4971000;28;20407;-78
2022/03/18 05:30:20;;;;;;;20.30;8.23;;;;;;;3.77;100.00;101324.19;4998099;28;20202;-78
2022/03/18 05:32:52;;;;;;;18.00;8.50;;;;;;;3.84;100.00;101330.25;5027691;28;20197;-78
2022/03/18 05:35:20;;;;;;;16.67;8.33;;;;;;;3.68;100.00;101334.66;4993772;28;20202;-78
2022/03/18 05:37:49;;;;;;;15.77;8.60;;;;;;;3.71;100.00;101343.38;4976076;28;20250;-78
2022/03/18 05:40:21;;;;;;;22.27;8.83;;;;;;;3.67;100.00;101341.66;5007495;28;20226;-78
2022/03/18 05:42:53;;;;;;;18.90;8.23;;;;;;;3.64;100.00;101346.00;5002309;28;20668;-78
2022/03/18 05:45:22;;;;;;;20.13;8.43;;;;;;;3.60;100.00;101344.28;5007488;28;20194;-79
2022/03/18 05:47:51;;;;;;;19.47;8.17;;;;;;;3.66;100.00;101355.59;5010513;28;20201;-78
2022/03/18 05:50:20;;;;;;;22.20;8.57;;;;;;;3.63;100.00;101353.00;5004133;28;20265;-78
2022/03/18 05:52:49;;;;;;;17.97;8.43;;;;;;;3.64;100.00;101356.50;5010535;28;20210;-78
2022/03/18 05:55:20;;;;;;;18.77;8.23;;;;;;;3.61;100.00;101362.63;5007012;28;20331;-78
2022/03/18 05:57:47;;;;;;;17.30;8.33;;;;;;;3.58;100.00;101362.63;4999606;28;20204;-78
2022/03/18 06:00:16;;;;;;;15.30;8.43;;;;;;;3.56;100.00;101361.72;4976049;28;20204;-78
2022/03/18 06:02:45;;;;;;;17.93;8.20;;;;;;;3.64;100.00;101357.38;4980745;28;20234;-77
2022/03/18 06:05:15;;;;;;;22.00;8.70;;;;;;;3.60;100.00;101367.84;5021671;28;20203;-78
2022/03/18 06:07:44;;;;;;;28.30;14.07;;;;;;;3.64;100.00;101361.72;4978456;28;20291;-78
2022/03/18 06:13:00;;;;;;;28.73;12.60;;;;;;;3.64;100.00;101372.22;4972212;28;20204;-78
2022/03/18 06:15:29;;;;;;;29.43;12.50;;;;;;;3.61;100.00;101380.94;4978589;28;20196;-78
2022/03/18 06:18:02;;;;;;;36.97;17.00;;;;;;;3.67;100.00;101375.72;4981766;28;20253;-78
2022/03/18 06:20:30;;;;;;;36.30;15.73;;;;;;;3.67;100.00;101382.72;4979443;28;20234;-78
2022/03/18 06:23:00;;;;;;;23.53;10.77;;;;;;;3.70;100.00;101382.72;4977650;28;20213;-78
2022/03/18 06:25:28;;;;;;;21.17;10.33;;;;;;;3.69;100.00;101391.44;4978936;28;20198;-78
2022/03/18 06:27:57;;;;;;;26.77;12.43;;;;;;;3.69;100.00;101397.56;4978856;28;20204;-78
2022/03/18 06:30:31;;;;;;;26.63;14.40;;;;;;;3.80;100.00;101394.94;4980399;28;20200;-78
2022/03/18 06:33:01;;;;;;;16.33;7.40;;;;;;;3.76;100.00;101402.78;4980881;28;20200;-78
2022/03/18 06:35:30;;;;;;;27.53;13.10;;;;;;;3.67;100.00;101407.19;4983959;28;20222;-78
2022/03/18 06:37:58;;;;;;;27.27;12.20;;;;;;;3.70;100.00;101407.16;4977090;28;20284;-78
2022/03/18 06:40:26;;;;;;;17.67;7.37;;;;;;;3.72;100.00;101412.41;4980938;28;20699;-77
2022/03/18 06:42:55;;;;;;;14.63;7.67;;;;;;;3.70;100.00;101422.88;5030063;28;20221;-78
2022/03/18 06:45:26;;;;;;;11.73;7.00;;;;;;;3.63;100.00;101426.38;5029781;28;20204;-78
2022/03/18 06:47:57;;;;;;;20.13;7.27;;;;;;;3.60;100.00;101426.38;5014343;28;20286;-77
2022/03/18 06:50:26;;;;;;;17.83;6.90;;;;;;;3.64;100.00;101428.13;5026241;28;20202;-78
2022/03/18 06:52:55;;;;;;;13.93;7.50;;;;;;;3.64;100.00;101433.34;5028285;28;20194;-78
2022/03/18 06:55:25;;;;;;;15.87;7.63;;;;;;;3.69;100.00;101433.38;5024102;28;20201;-79
2022/03/18 06:57:54;;;;;;;19.90;9.03;;;;;;;3.71;100.00;101434.25;4991280;28;20263;-78
2022/03/18 07:00:22;;;;;;;22.40;9.37;;;;;;;3.70;100.00;101435.13;4991651;28;20413;-78
2022/03/18 07:02:51;;;;;;;19.90;9.20;;;;;;;3.86;100.00;101438.59;5010497;28;20284;-78
2022/03/18 07:05:21;;;;;;;17.83;8.50;;;;;;;3.85;100.00;101437.72;5008782;28;20209;-78
2022/03/18 07:07:50;;;;;;;16.80;8.03;;;;;;;3.79;100.00;101432.50;4978129;28;20186;-78
2022/03/18 07:10:25;;;;;;;15.77;7.27;;;;;;;3.87;100.00;101437.75;5004412;28;20264;-78
2022/03/18 07:12:54;;;;;;;21.53;8.67;;;;;;;4.02;100.00;101432.50;4977875;28;20195;-78
2022/03/18 07:15:26;;;;;;;19.63;9.03;;;;;;;4.04;100.00;101441.22;5007133;28;20357;-78
2022/03/18 07:17:55;;;;;;;17.53;8.57;;;;;;;4.14;100.00;101437.72;5010807;28;20202;-79
2022/03/18 07:20:26;;;;;;;15.13;7.73;;;;;;;4.11;100.00;101437.72;5006541;28;20190;-78
2022/03/18 07:23:04;;;;;;;16.50;7.67;;;;;;;4.21;100.00;101443.84;5007908;28;20242;-78
2022/03/18 07:25:34;;;;;;;15.17;7.20;;;;;;;4.34;100.00;101444.69;5003907;28;20202;-77
2022/03/18 07:28:03;;;;;;;19.43;6.83;;;;;;;4.39;100.00;101449.06;5005664;28;20215;-78
2022/03/18 07:30:32;;;;;;;14.83;6.67;;;;;;;4.50;100.00;101444.66;5005208;28;20191;-78
2022/03/18 07:33:00;;;;;;;18.87;7.77;;;;;;;4.66;100.00;101439.38;4976081;28;20201;-78
2022/03/18 07:35:30;;;;;;;18.03;7.20;;;;;;;4.71;100.00;101435.84;4987927;28;20212;-78
2022/03/18 07:37:59;;;;;;;13.53;6.10;;;;;;;4.86;100.00;101438.44;4970439;28;20249;-78
2022/03/18 07:40:28;;;;;;;17.67;6.50;;;;;;;4.94;100.00;101440.16;4977393;28;20318;-78
2022/03/18 07:42:58;;;;;;;11.50;5.87;;;;;;;5.08;100.00;101439.22;4975152;28;20219;-78
2022/03/18 07:45:29;;;;;;;19.00;6.87;;;;;;;5.07;100.00;101440.09;4982862;28;20211;-78
2022/03/18 07:48:00;;;;;;;12.93;5.90;;;;;;;5.20;100.00;101437.41;4977126;28;20188;-78
2022/03/18 07:50:32;;;;;;;19.87;6.20;;;;;;;5.34;100.00;101439.06;4970428;28;20265;-78
2022/03/18 07:53:05;;;;;;;16.10;6.20;;;;;;;5.47;100.00;101432.84;5017732;28;20209;-78
2022/03/18 07:55:36;;;;;;;12.77;6.23;;;;;;;5.64;100.00;101430.13;5026105;28;20198;-78
2022/03/18 07:58:06;;;;;;;14.53;7.10;;;;;;;5.71;100.00;101433.59;4884775;28;20195;-79
2022/03/18 08:00:35;;;;;;;13.43;7.20;;;;;;;5.73;100.00;101437.06;4877260;29;20632;-78
2022/03/18 08:03:04;;;;;;;18.03;7.00;;;;;;;5.68;100.00;101439.72;4846592;29;20307;-78
2022/03/18 08:05:35;;;;;;;14.30;6.60;;;;;;;5.93;100.00;101434.31;4845145;29;20213;-79
2022/03/18 08:08:03;;;;;;;14.23;6.97;;;;;;;5.91;100.00;101434.34;4832673;29;20213;-79
2022/03/18 08:10:32;;;;;;;20.10;8.03;;;;;;;6.12;100.00;101442.91;4848688;29;20201;-79
2022/03/18 08:13:01;;;;;;;17.87;7.80;;;;;;;6.15;100.00;101443.75;4916940;29;20260;-79
2022/03/18 08:15:29;;;;;;;13.47;8.03;;;;;;;6.28;100.00;101436.63;4926437;28;20200;-79
2022/03/18 08:17:58;;;;;;;16.60;9.03;;;;;;;6.19;100.00;101445.50;4912975;29;20340;-79
2022/03/18 08:20:27;;;;;;;18.07;8.77;;;;;;;6.31;100.00;101450.63;4919529;29;20200;-79
2022/03/18 08:22:57;;;;;;;18.10;7.53;;;;;;;6.41;100.00;101445.28;4916784;29;20218;-78
2022/03/18 08:25:25;;;;;;;14.57;7.20;;;;;;;6.24;100.00;101450.69;4918803;28;20251;-78
2022/03/18 08:27:54;;;;;;;14.50;8.47;;;;;;;6.21;100.00;101448.97;4971476;28;20239;-78
2022/03/18 08:30:22;;;;;;;15.53;7.57;;;;;;;6.32;100.00;101457.63;4966761;28;20231;-78
2022/03/18 08:32:51;;;;;;;15.63;7.40;;;;;;;6.33;100.00;101455.88;4969868;28;20230;-77
2022/03/18 08:35:21;;;;;;;13.80;7.23;;;;;;;6.30;100.00;101464.69;4970185;28;20256;-77
2022/03/18 08:37:59;;;;;;;15.97;7.77;;;;;;;6.12;100.00;101464.84;5020990;28;20206;-77
2022/03/18 08:40:32;;;;;;;17.07;7.57;;;;;;;6.27;100.00;101461.19;5032418;28;20614;-77
2022/03/18 08:43:02;;;;;;;17.00;8.30;;;;;;;6.15;100.00;101461.31;4980174;28;20246;-77
2022/03/18 08:45:32;;;;;;;15.57;7.87;;;;;;;6.31;100.00;101462.91;5001913;28;20195;-77
2022/03/18 08:48:04;;;;;;;15.47;7.07;;;;;;;6.45;100.00;101465.41;5046327;28;20193;-77
2022/03/18 08:50:33;;;;;;;14.93;7.70;;;;;;;6.45;100.00;101468.03;5047014;28;20189;-77
2022/03/18 08:53:04;;;;;;;18.80;7.73;;;;;;;6.64;100.00;101464.31;4954240;28;20197;-77
2022/03/18 08:55:35;;;;;;;13.17;7.27;;;;;;;6.86;100.00;101467.63;5044170;28;20266;-77
2022/03/18 08:58:04;;;;;;;17.73;7.73;;;;;;;7.06;100.00;101470.00;5043814;28;20231;-77
2022/03/18 09:00:32;;;;;;;16.73;7.33;;;;;;;7.17;100.00;101465.47;5043962;28;20201;-77
2022/03/18 09:03:01;;;;;;;14.27;6.80;;;;;;;7.21;100.00;101471.56;5030533;28;20244;-77
2022/03/18 09:05:30;;;;;;;15.93;6.93;;;;;;;7.22;100.00;101471.53;5029906;28;20199;-77
2022/03/18 09:08:01;;;;;;;15.50;7.40;;;;;;;7.56;100.00;101469.34;5001139;28;20211;-77
2022/03/18 09:10:29;;;;;;;16.40;7.33;;;;;;;7.57;100.00;101462.28;4995898;28;20199;-78
2022/03/18 09:13:12;;;;;;;15.63;7.40;;;;;;;7.78;100.00;101480.44;4996685;28;20206;-77
2022/03/18 09:15:41;;;;;;;16.03;7.03;;;;;;;7.75;100.00;101470.81;5001915;28;20207;-77
2022/03/18 09:18:10;;;;;;;12.60;7.50;;;;;;;7.83;100.00;101467.19;5019601;28;20270;-77
2022/03/18 09:20:38;;;;;;;13.63;7.03;;;;;;;7.93;100.00;101466.13;5003370;28;20195;-77
2022/03/18 09:23:08;;;;;;;19.93;13.07;;;;;;;8.28;100.00;101466.41;4997616;28;20226;-77
2022/03/18 09:25:38;;;;;;;15.50;7.33;;;;;;;8.14;100.00;101457.88;5000071;28;20205;-78
2022/03/18 09:28:08;;;;;;;13.33;6.87;;;;;;;8.33;100.00;101464.56;4941041;28;20203;-78
2022/03/18 09:30:54;;;;;;;14.57;6.53;;;;;;;8.91;100.00;101457.34;4972846;28;20203;-78
2022/03/18 09:33:22;;;;;;;17.73;6.70;;;;;;;8.87;100.00;101455.66;4970799;28;20312;-78
2022/03/18 09:35:50;;;;;;;13.00;6.23;;;;;;;8.91;100.00;101461.75;4967498;28;20317;-79
2022/03/18 09:38:19;;;;;;;12.87;6.20;;;;;;;9.19;100.00;101455.00;4973129;28;20287;-78
2022/03/18 09:40:48;;;;;;;14.33;6.60;;;;;;;8.99;100.00;101457.19;4971573;28;20203;-78
2022/03/18 09:43:33;;;;;;;13.23;6.00;;;;;;;9.13;100.00;101461.28;4973080;28;20247;-78
2022/03/18 09:46:05;;;;;;;15.17;6.87;;;;;;;9.38;100.00;101460.78;4968193;28;20739;-78
2022/03/18 09:48:54;;;;;;;9.10;5.77;;;;;;;9.52;100.00;101461.31;4973074;28;20755;-78
2022/03/18 09:51:25;;;;;;;9.20;5.43;;;;;;;9.86;100.00;101463.19;4968889;28;20255;-78
2022/03/18 09:54:14;;;;;;;11.13;5.90;;;;;;;10.27;100.00;101462.19;4952581;29;20430;-78
2022/03/18 09:56:44;;;;;;;10.67;5.30;;;;;;;10.43;100.00;101458.25;4950689;29;20204;-78
2022/03/18 09:59:13;;;;;;;11.57;5.50;;;;;;;10.38;100.00;101472.50;4991685;28;20197;-78
2022/03/18 10:01:44;;;;;;;8.70;4.60;;;;;;;10.45;100.00;101466.16;5025373;28;20213;-79
2022/03/18 10:04:14;;;;;;;9.50;4.53;;;;;;;10.21;100.00;101464.94;5025147;28;20616;-78
2022/03/18 10:06:44;;;;;;;7.00;4.00;;;;;;;10.31;100.00;101472.66;5028849;28;20259;-79
2022/03/18 10:09:13;;;;;;;9.90;4.20;;;;;;;10.29;98.31;101476.25;5027866;28;20206;-79
2022/03/18 10:11:43;;;;;;;8.90;4.37;;;;;;;10.57;92.87;101474.63;5014599;28;20286;-78
2022/03/18 10:14:18;;;;;;;7.77;3.90;;;;;;;11.05;92.23;101460.94;5000581;28;20287;-78
2022/03/18 10:16:50;;;;;;;9.20;4.37;;;;;;;11.03;95.66;101457.44;4997140;28;20191;-79
2022/03/18 10:19:21;;;;;;;7.43;4.37;;;;;;;11.04;91.90;101453.88;5000614;28;20278;-79
2022/03/18 10:21:55;;;;;;;8.93;3.63;;;;;;;11.41;89.00;101453.66;5001622;28;20248;-79
2022/03/18 10:24:27;;;;;;;8.33;3.83;;;;;;;11.23;89.84;101467.47;4972065;28;20225;-78
2022/03/18 10:27:11;;;;;;;7.13;4.10;;;;;;;10.87;86.42;101464.97;4996007;28;20392;-79
2022/03/18 10:29:42;;;;;;;8.03;3.80;;;;;;;10.92;83.05;101472.81;5005165;28;20211;-79
2022/03/18 10:32:12;;;;;;;8.13;3.60;;;;;;;11.10;84.22;101474.06;4993856;28;20206;-79
2022/03/18 10:37:41;;;;;;;7.23;3.70;;;;;;;11.26;83.19;101467.38;4992081;28;20199;-79
2022/03/18 10:40:12;;;;;;;9.43;3.73;;;;;;;11.38;82.30;101477.63;4990829;28;20281;-78
2022/03/18 10:42:41;;;;;;;9.20;5.27;;;;;;;11.67;81.86;101483.81;4999579;28;20187;-79
2022/03/18 10:45:10;;;;;;;13.20;9.93;;;;;;;11.97;85.02;101485.56;5002050;28;20221;-78
2022/03/18 10:47:42;;;;;;;11.03;5.37;;;;;;;12.17;84.73;101484.03;4974232;28;20224;-78
2022/03/18 10:50:16;;;;;;;14.47;9.37;;;;;;;12.32;85.74;101480.84;5002237;28;20206;-79
2022/03/18 10:53:11;;;;;;;23.20;12.70;;;;;;;12.43;87.96;101480.47;5003637;28;20661;-78
2022/03/18 10:55:40;;;;;;;11.77;8.30;;;;;;;12.58;86.36;101486.16;4999386;28;20264;-78
2022/03/18 10:58:11;;;;;;;14.97;8.17;;;;;;;12.52;84.76;101497.00;4996386;28;20654;-79
2022/03/18 11:00:42;;;;;;;11.00;5.83;;;;;;;12.39;82.25;101494.81;4996165;28;20199;-79
2022/03/18 11:03:13;;;;;;;12.63;6.07;;;;;;;12.78;79.47;101493.44;4992242;28;20192;-78
2022/03/18 11:05:45;;;;;;;13.37;5.73;;;;;;;12.70;84.77;101497.28;4994806;28;20199;-79
2022/03/18 11:08:21;;;;;;;11.47;5.83;;;;;;;12.93;85.46;101497.31;5003397;28;20286;-78
2022/03/18 11:11:15;;;;;;;10.40;5.43;;;;;;;13.30;83.79;101496.00;4997497;28;20202;-78
2022/03/18 11:13:52;;;;;;;11.17;5.67;;;;;;;13.34;83.84;101487.84;4999299;28;20199;-79
2022/03/18 11:16:25;;;;;;;9.93;4.87;;;;;;;13.08;86.41;101488.78;5002872;28;20206;-79
2022/03/18 11:18:56;;;;;;;13.73;5.83;;;;;;;13.18;84.25;101494.63;5001478;28;20210;-79
2022/03/18 11:21:35;;;;;;;10.87;5.47;;;;;;;13.07;84.66;101499.50;5001370;28;20268;-79
2022/03/18 11:24:05;;;;;;;11.93;6.00;;;;;;;13.56;80.59;101497.66;4994251;28;20229;-79
2022/03/18 11:26:37;;;;;;;11.37;4.80;;;;;;;13.88;80.21;101489.25;5000130;28;20209;-78
2022/03/18 11:29:07;;;;;;;12.63;5.90;;;;;;;13.48;78.68;101479.31;5004076;28;20195;-79
2022/03/18 11:31:35;;;;;;;11.37;5.13;;;;;;;13.08;78.08;101475.47;5001346;28;20275;-78
2022/03/18 11:34:11;;;;;;;9.90;5.83;;;;;;;13.77;76.26;101480.84;4999569;28;20203;-79
2022/03/18 11:36:52;;;;;;;11.53;5.77;;;;;;;14.08;73.92;101474.25;4995656;28;20214;-79
2022/03/18 11:39:22;;;;;;;9.60;6.27;;;;;;;14.07;73.29;101475.19;5002373;28;20233;-78
2022/03/18 11:41:56;;;;;;;11.23;5.07;;;;;;;14.25;71.89;101474.44;4999997;28;20199;-79
2022/03/18 11:44:52;;;;;;;8.17;4.70;;;;;;;14.00;72.78;101469.28;5005154;28;20219;-78